Time;durP1;ratioP1;P1;durP2;ratioP2;P2;SDS_P1;SDS_P2;PMS_P1;PMS_P2;Temp;Humidity;BMP_temperature;BMP_pressure;BME280_temperature;BME280_humidity;BME280_pressure;Samples;Min_cycle;Max_cycle;Signal;HPM_P1;HPM_P2
2023/09/25 00:01:21;;;;;;;17.17;16.00;;;10.20;99.90;;;;;;4950195;28;20504;-72
2023/09/25 00:03:48;;;;;;;18.02;16.65;;;10.10;99.90;;;;;;4938388;28;20134;-73
2023/09/25 00:06:15;;;;;;;16.45;15.27;;;10.10;99.90;;;;;;4955333;28;20097;-70
2023/09/25 00:08:42;;;;;;;17.08;15.90;;;10.20;99.90;;;;;;4950888;28;20046;-69
2023/09/25 00:11:09;;;;;;;17.35;16.20;;;10.00;99.90;;;;;;4950812;28;20046;-69
2023/09/25 00:13:36;;;;;;;16.77;15.52;;;10.00;99.90;;;;;;4949191;28;20047;-70
2023/09/25 00:16:03;;;;;;;16.38;15.27;;;10.00;99.90;;;;;;4951677;28;20646;-72
2023/09/25 00:18:30;;;;;;;16.45;15.35;;;10.00;99.90;;;;;;4936777;28;20077;-70
2023/09/25 00:20:57;;;;;;;16.17;15.07;;;10.00;99.90;;;;;;4950759;28;20035;-70
2023/09/25 00:23:23;;;;;;;15.75;14.68;;;10.00;99.90;;;;;;4950105;28;20073;-70
2023/09/25 00:25:50;;;;;;;16.55;15.25;;;9.90;99.90;;;;;;4949437;28;20049;-69
2023/09/25 00:28:17;;;;;;;16.27;15.05;;;9.80;99.90;;;;;;4953692;28;20078;-72
2023/09/25 00:30:44;;;;;;;15.95;14.65;;;9.70;99.90;;;;;;4950404;28;20046;-70
2023/09/25 00:33:12;;;;;;;15.23;14.23;;;9.70;99.90;;;;;;4953296;28;20591;-69
2023/09/25 00:35:42;;;;;;;16.05;14.80;;;9.70;99.90;;;;;;4952385;28;20052;-72
2023/09/25 00:38:10;;;;;;;16.38;14.98;;;9.70;99.90;;;;;;4947490;28;20059;-70
2023/09/25 00:40:38;;;;;;;15.55;14.45;;;9.60;99.90;;;;;;4932154;28;20058;-71
2023/09/25 00:43:08;;;;;;;15.50;14.35;;;9.60;99.90;;;;;;4953485;28;20078;-69
2023/09/25 00:45:38;;;;;;;15.30;14.23;;;9.60;99.90;;;;;;4952708;28;20062;-73
2023/09/25 00:48:05;;;;;;;15.05;13.90;;;9.60;99.90;;;;;;4933267;28;20055;-71
2023/09/25 00:50:33;;;;;;;13.88;12.90;;;9.60;99.90;;;;;;4918100;28;20065;-71
2023/09/25 00:53:07;;;;;;;13.55;12.65;;;9.60;99.90;;;;;;4953921;28;20054;-69
2023/09/25 00:55:35;;;;;;;14.70;13.30;;;9.70;99.90;;;;;;4946474;28;20085;-70
2023/09/25 00:58:02;;;;;;;13.70;12.77;;;9.70;99.90;;;;;;4952298;28;20049;-69
2023/09/25 01:00:28;;;;;;;14.05;13.15;;;9.70;99.90;;;;;;4911613;28;20043;-70
2023/09/25 01:02:55;;;;;;;14.88;13.75;;;9.70;99.90;;;;;;4934103;28;20509;-70
2023/09/25 01:05:22;;;;;;;14.73;13.63;;;9.70;99.90;;;;;;4948203;28;20050;-70
2023/09/25 01:07:49;;;;;;;14.18;13.27;;;9.60;99.90;;;;;;4939220;28;20083;-71
2023/09/25 01:10:17;;;;;;;14.45;13.55;;;9.60;99.90;;;;;;4946139;28;20049;-70
2023/09/25 01:12:46;;;;;;;13.88;12.85;;;9.80;99.90;;;;;;4929867;28;20054;-69
2023/09/25 01:15:13;;;;;;;14.35;13.25;;;9.80;99.90;;;;;;4945292;28;20047;-70
2023/09/25 01:17:41;;;;;;;14.68;13.57;;;9.80;99.90;;;;;;4952714;28;20047;-70
2023/09/25 01:20:17;;;;;;;12.93;12.15;;;9.90;99.90;;;;;;4935605;28;20082;-70
2023/09/25 01:22:46;;;;;;;13.68;12.68;;;10.10;99.90;;;;;;4945448;28;20050;-70
2023/09/25 01:25:15;;;;;;;14.15;13.15;;;10.20;99.90;;;;;;4950876;28;20038;-73
2023/09/25 01:27:44;;;;;;;14.77;13.80;;;10.30;99.90;;;;;;4950982;28;20046;-70
2023/09/25 01:30:13;;;;;;;14.98;13.68;;;10.30;99.90;;;;;;4947117;28;20046;-69
2023/09/25 01:32:43;;;;;;;14.40;13.27;;;10.50;99.90;;;;;;4929186;28;20059;-70
2023/09/25 01:35:16;;;;;;;15.40;14.23;;;10.60;99.90;;;;;;4951552;28;20169;-70
2023/09/25 01:37:44;;;;;;;15.02;14.02;;;10.60;99.90;;;;;;4944850;28;20138;-70
2023/09/25 01:40:18;;;;;;;15.60;14.60;;;10.70;99.90;;;;;;4949686;28;20069;-70
2023/09/25 01:42:46;;;;;;;15.40;14.52;;;10.70;99.90;;;;;;4928632;28;20047;-70
2023/09/25 01:45:19;;;;;;;16.85;15.63;;;10.70;99.90;;;;;;4950786;28;20043;-69
2023/09/25 01:47:51;;;;;;;16.27;15.18;;;10.70;99.90;;;;;;4947445;28;20043;-72
2023/09/25 01:50:21;;;;;;;16.30;15.40;;;10.70;99.90;;;;;;4946946;28;20045;-70
2023/09/25 01:52:54;;;;;;;16.48;15.57;;;10.60;99.90;;;;;;4953207;28;20097;-70
2023/09/25 01:55:21;;;;;;;16.02;15.10;;;10.50;99.90;;;;;;4929512;28;20055;-73
2023/09/25 01:57:48;;;;;;;16.85;15.85;;;10.30;99.90;;;;;;4951882;28;20412;-73
2023/09/25 02:00:16;;;;;;;17.65;16.55;;;10.20;99.90;;;;;;4928400;28;20047;-70
2023/09/25 02:02:44;;;;;;;17.98;16.77;;;10.10;99.90;;;;;;4933910;28;20507;-70
2023/09/25 02:05:11;;;;;;;18.05;16.65;;;10.00;99.90;;;;;;4933292;28;20051;-70
2023/09/25 02:07:38;;;;;;;16.95;15.95;;;10.00;99.90;;;;;;4948397;28;20049;-72
2023/09/25 02:10:06;;;;;;;18.38;17.08;;;10.00;99.90;;;;;;4949368;28;20043;-73
2023/09/25 02:12:34;;;;;;;16.58;15.57;;;9.90;99.90;;;;;;4947574;28;20043;-72
2023/09/25 02:15:04;;;;;;;16.88;15.68;;;9.90;99.90;;;;;;4932778;28;20055;-72
2023/09/25 02:17:31;;;;;;;15.98;14.88;;;9.90;99.90;;;;;;4948547;28;20042;-72
2023/09/25 02:20:20;;;;;;;15.75;14.60;;;10.00;99.90;;;;;;4935216;28;20078;-73
2023/09/25 02:22:48;;;;;;;15.10;13.98;;;9.90;99.90;;;;;;4945592;28;20042;-72
2023/09/25 02:25:16;;;;;;;15.25;14.18;;;9.90;99.90;;;;;;4949769;28;20034;-72
2023/09/25 02:27:43;;;;;;;15.43;14.15;;;10.00;99.90;;;;;;4932591;28;20125;-73
2023/09/25 02:30:10;;;;;;;14.60;13.65;;;10.10;99.90;;;;;;4943069;28;20058;-71
2023/09/25 02:32:38;;;;;;;14.45;13.45;;;10.10;99.90;;;;;;4945984;28;20149;-71
2023/09/25 02:35:07;;;;;;;14.52;13.68;;;10.20;99.90;;;;;;4935938;28;20077;-73
2023/09/25 02:37:35;;;;;;;15.40;14.30;;;10.20;99.90;;;;;;4944930;28;20078;-71
2023/09/25 02:40:02;;;;;;;15.40;14.15;;;10.30;99.90;;;;;;4952549;28;20045;-73
2023/09/25 02:42:28;;;;;;;14.45;13.65;;;10.30;99.90;;;;;;4931538;28;20054;-71
2023/09/25 02:44:55;;;;;;;15.38;14.38;;;10.40;99.90;;;;;;4954747;28;20050;-72
2023/09/25 02:47:22;;;;;;;16.27;15.18;;;10.40;99.90;;;;;;4932557;28;20051;-70
2023/09/25 02:49:48;;;;;;;16.20;15.05;;;10.40;99.90;;;;;;4951051;28;20046;-71
2023/09/25 02:52:15;;;;;;;16.27;15.23;;;10.40;99.90;;;;;;4951120;28;20149;-73
2023/09/25 02:54:42;;;;;;;16.40;15.20;;;10.30;99.90;;;;;;4947515;28;20042;-71
2023/09/25 02:57:09;;;;;;;16.25;15.20;;;10.40;99.90;;;;;;4946698;28;20051;-71
2023/09/25 02:59:36;;;;;;;16.88;15.68;;;10.40;99.90;;;;;;4929085;28;20050;-72
2023/09/25 03:02:03;;;;;;;16.88;15.80;;;10.40;99.90;;;;;;4948923;28;20046;-71
2023/09/25 03:04:29;;;;;;;16.67;15.68;;;10.40;99.90;;;;;;4948887;28;20046;-71
2023/09/25 03:06:56;;;;;;;17.35;15.98;;;10.30;99.90;;;;;;4952118;28;20134;-71
2023/09/25 03:09:23;;;;;;;17.02;15.82;;;10.40;99.90;;;;;;4945966;28;20051;-72
2023/09/25 03:11:50;;;;;;;16.98;15.85;;;10.40;99.90;;;;;;4949552;28;20039;-72
2023/09/25 03:14:17;;;;;;;16.98;15.60;;;10.40;99.90;;;;;;4928304;28;20055;-71
2023/09/25 03:16:45;;;;;;;16.80;15.57;;;10.40;99.90;;;;;;4928737;28;20131;-72
2023/09/25 03:19:12;;;;;;;16.90;15.77;;;10.50;99.90;;;;;;4932626;28;20101;-71
2023/09/25 03:21:41;;;;;;;16.65;15.57;;;10.50;99.90;;;;;;4926965;28;20460;-72
2023/09/25 03:24:08;;;;;;;16.38;15.38;;;10.40;99.90;;;;;;4943693;28;20101;-70
2023/09/25 03:26:35;;;;;;;16.80;15.80;;;10.40;99.90;;;;;;4948530;28;20051;-70
2023/09/25 03:29:04;;;;;;;17.20;15.82;;;10.40;99.90;;;;;;4933258;28;20052;-71
2023/09/25 03:31:31;;;;;;;16.55;15.45;;;10.50;99.90;;;;;;4926963;28;20842;-72
2023/09/25 03:33:58;;;;;;;16.38;15.27;;;10.50;99.90;;;;;;4951810;28;20058;-72
2023/09/25 03:36:25;;;;;;;15.95;15.05;;;10.50;99.90;;;;;;4947567;28;20638;-71
2023/09/25 03:38:52;;;;;;;16.67;15.77;;;10.60;99.90;;;;;;4932033;28;20043;-72
2023/09/25 03:41:18;;;;;;;17.67;16.52;;;10.60;99.90;;;;;;4928588;28;20086;-72
2023/09/25 03:43:45;;;;;;;16.90;15.80;;;10.60;99.90;;;;;;4948048;28;20054;-72
2023/09/25 03:46:12;;;;;;;16.42;15.52;;;10.60;99.90;;;;;;4948801;28;20055;-71
2023/09/25 03:48:39;;;;;;;16.55;15.55;;;10.70;99.90;;;;;;4944430;28;20123;-71
2023/09/25 03:51:05;;;;;;;17.63;16.42;;;10.60;99.90;;;;;;4934803;28;20054;-72
2023/09/25 03:53:32;;;;;;;17.00;15.90;;;10.50;99.90;;;;;;4949277;28;20042;-72
2023/09/25 03:55:59;;;;;;;17.55;16.50;;;10.50;99.90;;;;;;4954762;28;20043;-71
2023/09/25 03:58:26;;;;;;;17.65;16.55;;;10.50;99.90;;;;;;4930945;28;20054;-72
2023/09/25 04:00:53;;;;;;;17.02;15.93;;;10.40;99.90;;;;;;4945686;28;20050;-72
2023/09/25 04:03:20;;;;;;;18.45;16.98;;;10.40;99.90;;;;;;4953616;28;20058;-72
2023/09/25 04:05:47;;;;;;;18.80;17.52;;;10.30;99.90;;;;;;4953731;28;20035;-72
2023/09/25 04:08:13;;;;;;;17.83;16.63;;;10.20;99.90;;;;;;4952625;28;20054;-71
2023/09/25 04:10:40;;;;;;;17.77;16.45;;;10.20;99.90;;;;;;4947836;28;20038;-72
2023/09/25 04:13:08;;;;;;;17.55;16.45;;;10.20;99.90;;;;;;4951058;28;20050;-72
2023/09/25 04:15:34;;;;;;;18.00;16.80;;;10.20;99.90;;;;;;4951327;28;20046;-71
2023/09/25 04:18:01;;;;;;;17.27;16.08;;;10.00;99.90;;;;;;4954281;28;20058;-71
2023/09/25 04:20:28;;;;;;;17.05;15.85;;;9.90;99.90;;;;;;4952719;28;20055;-71
2023/09/25 04:22:56;;;;;;;16.75;15.65;;;9.90;99.90;;;;;;4954472;28;20054;-73
2023/09/25 04:25:23;;;;;;;17.73;16.35;;;9.90;99.90;;;;;;4957391;28;20039;-72
2023/09/25 04:27:53;;;;;;;16.33;15.25;;;9.90;99.90;;;;;;4960129;28;20090;-72
2023/09/25 04:30:21;;;;;;;16.63;15.43;;;9.90;99.90;;;;;;4949226;28;20051;-71
2023/09/25 04:32:53;;;;;;;15.70;14.80;;;9.90;99.90;;;;;;4953161;28;20046;-71
2023/09/25 04:35:21;;;;;;;16.95;15.90;;;9.90;99.90;;;;;;4951545;28;20055;-72
2023/09/25 04:37:48;;;;;;;16.75;15.65;;;9.90;99.90;;;;;;4951985;28;20051;-72
2023/09/25 04:40:23;;;;;;;16.85;15.85;;;9.80;99.90;;;;;;4934301;28;20054;-71
2023/09/25 04:42:52;;;;;;;18.20;16.48;;;9.90;99.90;;;;;;4951675;28;20061;-71
2023/09/25 04:45:20;;;;;;;17.80;16.50;;;9.80;99.90;;;;;;4952154;28;20042;-71
2023/09/25 04:47:48;;;;;;;17.85;16.65;;;9.80;99.90;;;;;;4948437;28;20631;-71
2023/09/25 04:50:15;;;;;;;18.48;17.05;;;9.80;99.90;;;;;;4952586;28;20047;-72
2023/09/25 04:52:42;;;;;;;16.70;15.70;;;9.80;99.90;;;;;;4952798;28;20135;-71
2023/09/25 04:55:12;;;;;;;18.70;17.27;;;9.60;99.90;;;;;;4950317;28;20047;-72
2023/09/25 04:57:47;;;;;;;18.58;17.30;;;9.60;99.90;;;;;;4950543;28;20113;-72
2023/09/25 05:00:26;;;;;;;18.88;17.38;;;9.40;99.90;;;;;;4950277;28;20050;-72
2023/09/25 05:02:55;;;;;;;17.55;16.35;;;9.50;99.90;;;;;;4949065;28;20055;-73
2023/09/25 05:05:22;;;;;;;17.30;15.73;;;9.60;99.90;;;;;;4950298;28;20664;-71
2023/09/25 05:07:50;;;;;;;17.15;15.82;;;9.60;99.90;;;;;;4931520;28;20054;-71
2023/09/25 05:10:24;;;;;;;17.75;16.05;;;9.60;99.90;;;;;;4950709;28;20062;-72
2023/09/25 05:12:52;;;;;;;18.90;17.53;;;9.60;99.90;;;;;;4947432;28;20588;-73
2023/09/25 05:15:20;;;;;;;17.70;16.30;;;9.50;99.90;;;;;;4948792;28;20134;-69
2023/09/25 05:17:47;;;;;;;16.15;15.05;;;9.40;99.90;;;;;;4948895;28;20138;-73
2023/09/25 05:20:18;;;;;;;17.65;16.20;;;9.40;99.90;;;;;;4948102;28;20121;-72
2023/09/25 05:22:50;;;;;;;17.45;16.10;;;9.40;99.90;;;;;;4947788;28;20699;-72
2023/09/25 05:25:18;;;;;;;16.85;15.60;;;9.40;99.90;;;;;;4948467;28;20043;-71
2023/09/25 05:27:47;;;;;;;17.00;15.70;;;9.40;99.90;;;;;;4949417;28;20598;-72
2023/09/25 05:30:14;;;;;;;17.27;16.05;;;9.40;99.90;;;;;;4944348;28;20042;-72
2023/09/25 05:32:44;;;;;;;17.38;15.98;;;9.40;99.90;;;;;;4944446;28;20057;-71
2023/09/25 05:35:11;;;;;;;17.38;16.08;;;9.30;99.90;;;;;;4951802;28;20050;-72
2023/09/25 05:37:39;;;;;;;17.60;16.23;;;9.30;99.90;;;;;;4947038;28;20050;-71
2023/09/25 05:40:12;;;;;;;17.50;16.10;;;9.40;99.90;;;;;;4951027;28;20039;-73
2023/09/25 05:42:42;;;;;;;17.55;16.15;;;9.40;99.90;;;;;;4944736;28;20102;-72
2023/09/25 05:45:11;;;;;;;18.33;16.92;;;9.40;99.90;;;;;;4935375;28;20045;-71
2023/09/25 05:47:38;;;;;;;16.88;15.57;;;9.30;99.90;;;;;;4946480;28;20109;-72
2023/09/25 05:50:09;;;;;;;17.25;15.95;;;9.40;99.90;;;;;;4942212;28;20052;-72
2023/09/25 05:52:37;;;;;;;17.33;15.93;;;9.50;99.90;;;;;;4949487;28;20047;-71
2023/09/25 05:55:06;;;;;;;17.70;16.20;;;9.50;99.90;;;;;;4932723;28;20136;-72
2023/09/25 05:57:34;;;;;;;17.75;16.38;;;9.60;99.90;;;;;;4931395;28;20062;-71
2023/09/25 06:00:12;;;;;;;18.33;16.88;;;9.70;99.90;;;;;;4947720;28;20074;-71
2023/09/25 06:02:40;;;;;;;18.65;17.25;;;9.70;99.90;;;;;;4943969;28;20043;-72
2023/09/25 06:05:08;;;;;;;18.55;17.15;;;9.70;99.90;;;;;;4952182;28;20074;-72
2023/09/25 06:07:35;;;;;;;19.00;17.40;;;9.80;99.90;;;;;;4947803;28;20059;-71
2023/09/25 06:10:04;;;;;;;18.13;16.67;;;9.80;99.90;;;;;;4946857;28;20186;-71
2023/09/25 06:12:31;;;;;;;18.98;17.38;;;9.90;99.90;;;;;;4946026;28;20678;-72
2023/09/25 06:14:59;;;;;;;18.52;17.17;;;10.00;99.90;;;;;;4930450;28;20499;-72
2023/09/25 06:17:28;;;;;;;19.40;17.67;;;10.10;99.90;;;;;;4945447;28;20453;-72
2023/09/25 06:19:56;;;;;;;19.77;18.17;;;10.10;99.90;;;;;;4949462;28;20655;-73
2023/09/25 06:22:22;;;;;;;20.92;19.30;;;10.10;99.90;;;;;;4929512;28;20046;-72
2023/09/25 06:24:50;;;;;;;20.48;19.15;;;10.20;99.90;;;;;;4932350;28;20752;-72
2023/09/25 06:27:17;;;;;;;21.55;19.73;;;10.20;99.90;;;;;;4948942;28;20056;-73
2023/09/25 06:29:44;;;;;;;21.90;20.20;;;10.20;99.90;;;;;;4943298;28;20030;-72
2023/09/25 06:32:11;;;;;;;21.30;19.90;;;10.20;99.90;;;;;;4947406;28;20039;-73
2023/09/25 06:34:41;;;;;;;20.67;19.35;;;10.30;99.90;;;;;;4948997;28;20051;-71
2023/09/25 06:37:08;;;;;;;21.20;19.80;;;10.40;99.90;;;;;;4950104;28;20043;-70
2023/09/25 06:39:35;;;;;;;20.60;19.15;;;10.50;99.90;;;;;;4964395;28;20331;-71
2023/09/25 06:42:03;;;;;;;20.77;19.33;;;10.50;99.90;;;;;;4932119;28;20113;-71
2023/09/25 06:44:30;;;;;;;20.15;18.85;;;10.50;99.90;;;;;;4948655;28;20105;-74
2023/09/25 06:46:57;;;;;;;21.15;19.70;;;10.70;99.90;;;;;;4945151;28;20532;-71
2023/09/25 06:49:24;;;;;;;20.98;19.58;;;10.70;99.90;;;;;;4947347;28;20038;-74
2023/09/25 06:51:50;;;;;;;21.20;19.73;;;10.80;99.90;;;;;;4946177;28;20512;-70
2023/09/25 06:54:17;;;;;;;19.70;18.30;;;10.80;99.90;;;;;;4946728;28;20047;-71
2023/09/25 06:56:44;;;;;;;21.00;19.50;;;10.90;99.90;;;;;;4941613;28;20482;-70
2023/09/25 06:59:11;;;;;;;19.35;18.15;;;11.10;99.90;;;;;;4948626;28;20075;-72
2023/09/25 07:01:38;;;;;;;20.40;18.90;;;11.20;99.90;;;;;;4947138;28;20054;-71
2023/09/25 07:04:06;;;;;;;20.15;18.75;;;11.30;99.90;;;;;;4953236;28;20528;-71
2023/09/25 07:06:33;;;;;;;20.75;19.33;;;11.40;99.90;;;;;;4938036;28;20039;-71
2023/09/25 07:09:02;;;;;;;20.60;19.30;;;11.60;99.90;;;;;;4953602;28;20043;-72
2023/09/25 07:11:29;;;;;;;22.02;20.70;;;11.70;99.90;;;;;;4951930;28;20035;-70
2023/09/25 07:13:56;;;;;;;21.27;19.88;;;11.80;99.90;;;;;;4949229;28;20085;-71
2023/09/25 07:16:23;;;;;;;21.05;19.80;;;11.90;99.90;;;;;;4934242;28;20043;-71
2023/09/25 07:18:50;;;;;;;21.48;20.17;;;12.00;99.90;;;;;;4947877;28;21058;-71
2023/09/25 07:21:17;;;;;;;21.88;20.23;;;12.20;99.90;;;;;;4946891;28;20047;-71
2023/09/25 07:23:44;;;;;;;22.15;20.75;;;12.30;99.90;;;;;;4943752;28;20424;-73
2023/09/25 07:26:11;;;;;;;23.67;21.60;;;12.50;99.90;;;;;;4953602;28;20465;-71
2023/09/25 07:28:38;;;;;;;23.83;21.55;;;12.60;99.90;;;;;;4952444;28;20082;-71
2023/09/25 07:31:05;;;;;;;22.30;20.80;;;12.70;99.90;;;;;;4948721;28;20105;-71
2023/09/25 07:33:34;;;;;;;22.95;21.48;;;12.90;99.90;;;;;;4952031;28;20664;-71
2023/09/25 07:36:03;;;;;;;24.02;22.23;;;13.00;99.90;;;;;;4948890;28;20054;-72
2023/09/25 07:38:33;;;;;;;23.35;21.75;;;13.30;99.90;;;;;;4949080;28;21840;-71
2023/09/25 07:41:00;;;;;;;23.92;22.38;;;13.50;99.90;;;;;;4948678;28;20520;-72
2023/09/25 07:43:29;;;;;;;24.85;22.63;;;13.70;99.90;;;;;;4952011;28;20125;-72
2023/09/25 07:46:18;;;;;;;23.15;21.75;;;13.90;99.90;;;;;;4950325;28;20038;-72
2023/09/25 07:48:45;;;;;;;24.35;22.52;;;14.20;99.90;;;;;;4948952;28;20050;-71
2023/09/25 07:51:13;;;;;;;23.33;21.90;;;14.70;99.90;;;;;;4952432;28;20043;-71
2023/09/25 07:53:44;;;;;;;25.35;23.20;;;14.90;99.90;;;;;;4955012;28;20045;-72
2023/09/25 07:56:11;;;;;;;24.60;22.75;;;14.80;99.90;;;;;;4952430;28;20058;-72
2023/09/25 07:58:39;;;;;;;25.30;23.70;;;14.70;99.90;;;;;;4952260;28;20070;-72
2023/09/25 08:01:08;;;;;;;25.27;23.33;;;14.80;99.90;;;;;;4949053;28;20053;-72
2023/09/25 08:03:38;;;;;;;24.08;22.58;;;14.90;99.90;;;;;;4952999;28;20525;-72
2023/09/25 08:06:05;;;;;;;25.35;23.30;;;14.90;99.90;;;;;;4949019;28;21584;-72
2023/09/25 08:08:34;;;;;;;24.33;22.63;;;14.90;99.90;;;;;;4949399;28;20072;-73
2023/09/25 08:11:00;;;;;;;24.65;23.00;;;15.00;99.90;;;;;;4950733;28;20146;-72
2023/09/25 08:13:27;;;;;;;26.27;23.52;;;15.00;99.90;;;;;;4951445;28;20050;-72
2023/09/25 08:15:54;;;;;;;23.83;22.20;;;15.10;99.90;;;;;;4947815;28;20049;-72
2023/09/25 08:18:21;;;;;;;24.17;22.48;;;15.40;99.90;;;;;;4934890;28;20069;-72
2023/09/25 08:20:49;;;;;;;25.50;23.75;;;15.80;99.90;;;;;;4951366;28;20501;-72
2023/09/25 08:23:16;;;;;;;25.65;23.95;;;15.90;99.90;;;;;;4954682;28;20054;-72
2023/09/25 08:25:42;;;;;;;25.92;24.13;;;16.00;99.90;;;;;;4950443;28;20054;-72
2023/09/25 08:28:10;;;;;;;27.33;25.00;;;16.20;99.90;;;;;;4951184;28;20095;-72
2023/09/25 08:30:36;;;;;;;26.08;24.38;;;16.20;99.90;;;;;;4949688;28;20043;-72
2023/09/25 08:33:03;;;;;;;25.38;23.88;;;16.10;99.90;;;;;;4936763;28;20050;-73
2023/09/25 08:35:30;;;;;;;25.98;24.10;;;16.20;99.90;;;;;;4953132;28;20064;-72
2023/09/25 08:37:57;;;;;;;25.92;24.23;;;16.10;99.90;;;;;;4951391;28;20057;-73
2023/09/25 08:40:23;;;;;;;24.90;23.38;;;16.20;99.90;;;;;;4949217;28;20214;-72
2023/09/25 08:42:53;;;;;;;27.20;25.10;;;16.40;99.90;;;;;;4950137;28;20050;-70
2023/09/25 08:45:35;;;;;;;27.13;25.48;;;16.50;99.90;;;;;;4937708;28;20065;-73
2023/09/25 08:48:02;;;;;;;27.60;25.98;;;16.40;99.90;;;;;;4947952;28;20512;-73
2023/09/25 08:50:29;;;;;;;27.25;25.55;;;16.30;99.90;;;;;;4949327;28;20046;-72
2023/09/25 08:52:56;;;;;;;27.10;25.30;;;16.20;99.90;;;;;;4917389;28;20117;-72
2023/09/25 08:55:24;;;;;;;26.23;24.52;;;16.30;99.90;;;;;;4952340;28;20051;-73
2023/09/25 08:57:52;;;;;;;26.70;24.65;;;16.60;99.90;;;;;;4931476;28;20525;-72
2023/09/25 09:00:19;;;;;;;26.10;24.48;;;16.80;99.90;;;;;;4915113;28;20054;-73
2023/09/25 09:02:46;;;;;;;26.83;25.05;;;17.10;99.90;;;;;;4950181;28;20590;-72
2023/09/25 09:05:14;;;;;;;27.08;25.10;;;17.30;99.90;;;;;;4951053;28;20051;-73
2023/09/25 09:07:55;;;;;;;28.00;26.00;;;17.40;99.90;;;;;;4950593;28;20066;-72
2023/09/25 09:10:22;;;;;;;27.30;25.02;;;17.10;99.90;;;;;;4934574;28;20172;-72
2023/09/25 09:12:53;;;;;;;27.15;25.25;;;16.90;99.90;;;;;;4926372;28;20075;-73
2023/09/25 09:15:30;;;;;;;26.33;24.23;;;16.90;99.90;;;;;;4945890;28;20047;-72
2023/09/25 09:17:57;;;;;;;26.25;24.23;;;17.00;99.90;;;;;;4930077;28;20055;-73
2023/09/25 09:20:36;;;;;;;25.33;23.60;;;17.30;99.90;;;;;;4946607;28;20050;-72
2023/09/25 09:23:03;;;;;;;25.77;23.98;;;17.80;99.90;;;;;;4944661;28;21184;-72
2023/09/25 09:25:31;;;;;;;26.63;24.73;;;18.10;99.90;;;;;;4952162;28;20133;-72
2023/09/25 09:27:59;;;;;;;27.02;24.95;;;18.10;99.90;;;;;;4931754;28;20093;-72
2023/09/25 09:30:26;;;;;;;27.23;25.23;;;18.10;99.90;;;;;;4915668;28;20059;-74
2023/09/25 09:32:53;;;;;;;29.27;26.83;;;17.90;99.90;;;;;;4949502;28;20105;-74
2023/09/25 09:35:30;;;;;;;29.42;26.98;;;17.60;99.90;;;;;;4948866;28;20545;-74
2023/09/25 09:37:58;;;;;;;28.17;25.95;;;17.50;99.90;;;;;;4950157;28;20051;-74
2023/09/25 09:40:27;;;;;;;28.75;26.13;;;17.60;99.90;;;;;;4913546;28;20042;-72
2023/09/25 09:42:54;;;;;;;26.63;24.90;;;17.80;99.90;;;;;;4945315;28;20129;-72
2023/09/25 09:45:22;;;;;;;27.45;25.85;;;17.80;99.90;;;;;;4947267;28;20954;-73
2023/09/25 09:47:50;;;;;;;29.10;26.30;;;17.70;99.90;;;;;;4947565;28;20134;-72
2023/09/25 09:50:28;;;;;;;29.55;27.45;;;17.90;99.90;;;;;;4946291;28;20089;-71
2023/09/25 09:52:59;;;;;;;28.65;26.73;;;18.30;99.90;;;;;;4943715;28;20105;-72
2023/09/25 09:55:31;;;;;;;27.88;25.83;;;18.50;99.90;;;;;;4947822;28;20437;-72
2023/09/25 09:58:00;;;;;;;28.63;26.92;;;18.60;99.90;;;;;;4946707;28;20038;-72
2023/09/25 10:00:27;;;;;;;28.80;27.02;;;18.70;99.90;;;;;;4944981;28;20039;-72
2023/09/25 10:02:55;;;;;;;28.20;26.40;;;18.30;99.90;;;;;;4931302;28;20070;-72
2023/09/25 10:05:22;;;;;;;29.02;27.05;;;18.30;99.90;;;;;;4953746;28;20049;-72
2023/09/25 10:08:11;;;;;;;31.80;28.05;;;18.30;99.90;;;;;;4935335;28;20121;-73
2023/09/25 10:10:42;;;;;;;29.15;26.80;;;18.30;99.90;;;;;;4950315;28;20054;-74
2023/09/25 10:13:25;;;;;;;27.98;26.17;;;18.30;99.90;;;;;;4944076;28;20042;-72
2023/09/25 10:16:00;;;;;;;27.20;25.30;;;18.50;99.90;;;;;;4945629;28;20540;-73
2023/09/25 10:18:30;;;;;;;30.13;27.13;;;18.90;99.90;;;;;;4950560;28;20134;-74
2023/09/25 10:21:01;;;;;;;28.88;26.45;;;19.10;99.90;;;;;;4943844;28;20133;-72
2023/09/25 10:23:29;;;;;;;28.77;26.70;;;18.90;99.90;;;;;;4932132;28;21016;-74
2023/09/25 10:26:02;;;;;;;29.40;26.80;;;18.70;99.90;;;;;;4943610;28;20050;-74
2023/09/25 10:28:36;;;;;;;27.50;25.80;;;18.60;99.90;;;;;;4947793;28;20527;-73
2023/09/25 10:31:15;;;;;;;30.30;27.63;;;18.50;99.90;;;;;;4939480;28;20050;-74
2023/09/25 10:33:57;;;;;;;27.75;25.75;;;18.60;99.90;;;;;;4950647;28;21058;-74
2023/09/25 10:36:44;;;;;;;28.75;26.45;;;18.80;99.90;;;;;;4951178;28;20078;-71
2023/09/25 10:39:15;;;;;;;28.10;26.10;;;18.80;99.90;;;;;;4942141;28;20061;-72
2023/09/25 10:41:42;;;;;;;29.02;26.65;;;18.90;99.90;;;;;;4952035;28;20046;-72
2023/09/25 10:44:12;;;;;;;28.85;26.52;;;19.00;99.90;;;;;;4947088;28;20084;-72
2023/09/25 10:46:39;;;;;;;33.10;27.50;;;19.40;99.90;;;;;;4947245;28;20516;-73
2023/09/25 10:49:08;;;;;;;28.90;26.45;;;19.50;99.90;;;;;;4948738;28;20046;-72
2023/09/25 10:51:36;;;;;;;30.40;27.33;;;19.60;99.90;;;;;;4950597;28;20671;-73
2023/09/25 10:54:03;;;;;;;28.80;26.60;;;19.60;99.90;;;;;;4945887;28;20051;-72
2023/09/25 10:56:30;;;;;;;28.67;26.98;;;19.30;99.90;;;;;;4950884;28;20062;-72
2023/09/25 10:58:57;;;;;;;28.92;27.02;;;19.00;99.90;;;;;;4947973;28;20058;-72
2023/09/25 11:01:31;;;;;;;29.52;27.23;;;19.00;99.90;;;;;;4950056;28;20078;-72
2023/09/25 11:03:59;;;;;;;29.67;27.73;;;19.10;99.90;;;;;;4950703;28;20042;-72
2023/09/25 11:06:28;;;;;;;33.42;27.88;;;19.10;99.90;;;;;;4956544;28;20088;-72
2023/09/25 11:09:04;;;;;;;29.50;27.67;;;19.00;99.90;;;;;;4929677;28;20082;-73
2023/09/25 11:11:31;;;;;;;223.35;45.70;;;19.30;99.90;;;;;;4952634;28;20045;-72
2023/09/25 11:13:58;;;;;;;90.70;33.30;;;19.10;99.90;;;;;;4947620;28;20538;-72
2023/09/25 11:16:25;;;;;;;41.97;28.45;;;19.20;99.90;;;;;;4952956;28;20081;-72
2023/09/25 11:19:11;;;;;;;42.95;29.73;;;19.50;99.90;;;;;;4957356;28;20053;-72
2023/09/25 11:21:39;;;;;;;418.73;62.72;;;19.60;99.90;;;;;;4952663;28;20046;-72
2023/09/25 11:24:10;;;;;;;28.65;26.35;;;19.60;99.90;;;;;;4947134;28;20671;-72
2023/09/25 11:26:37;;;;;;;37.85;30.48;;;19.60;99.90;;;;;;4953633;28;20082;-72
2023/09/25 11:29:11;;;;;;;30.50;28.13;;;19.70;99.90;;;;;;4949297;28;20053;-72
2023/09/25 11:31:39;;;;;;;30.27;27.90;;;19.90;99.90;;;;;;4951494;28;20129;-72
2023/09/25 11:34:25;;;;;;;26.30;24.35;;;19.80;99.90;;;;;;4953400;28;20047;-72
2023/09/25 11:36:53;;;;;;;28.10;26.33;;;19.90;99.90;;;;;;4955616;28;20153;-72
2023/09/25 11:39:20;;;;;;;29.70;27.50;;;19.70;99.90;;;;;;4952908;28;20042;-72
2023/09/25 11:41:46;;;;;;;29.17;27.35;;;19.70;99.90;;;;;;4949156;28;20066;-72
2023/09/25 11:44:13;;;;;;;30.17;28.02;;;19.80;99.90;;;;;;4952841;28;20051;-73
2023/09/25 11:46:42;;;;;;;30.30;28.00;;;19.80;99.90;;;;;;4948510;28;20046;-72
2023/09/25 11:49:09;;;;;;;30.08;28.02;;;19.80;99.90;;;;;;4949780;28;20059;-72
2023/09/25 11:51:36;;;;;;;29.98;27.98;;;19.80;99.90;;;;;;4937174;28;20047;-72
2023/09/25 11:54:03;;;;;;;30.27;27.95;;;19.90;99.90;;;;;;4951286;28;20081;-72
2023/09/25 11:56:32;;;;;;;29.42;27.33;;;19.90;99.90;;;;;;4951579;28;20638;-72
2023/09/25 11:59:00;;;;;;;29.98;27.90;;;20.00;99.90;;;;;;4950615;28;20125;-72
2023/09/25 12:01:26;;;;;;;32.13;28.10;;;20.00;99.90;;;;;;4951083;28;20078;-72
2023/09/25 12:03:53;;;;;;;32.03;29.45;;;19.90;99.90;;;;;;4936711;28;20039;-72
2023/09/25 12:06:24;;;;;;;31.20;28.52;;;20.00;99.90;;;;;;4950350;28;20054;-72
2023/09/25 12:08:51;;;;;;;30.38;27.98;;;19.80;99.90;;;;;;4935259;28;20528;-73
2023/09/25 12:11:17;;;;;;;29.70;27.35;;;19.70;99.90;;;;;;4943943;28;20053;-72
2023/09/25 12:13:45;;;;;;;31.02;27.98;;;19.90;99.90;;;;;;4950531;28;20130;-72
2023/09/25 12:16:12;;;;;;;30.60;28.23;;;20.10;99.90;;;;;;4947323;28;20054;-72
2023/09/25 12:18:39;;;;;;;29.33;27.30;;;20.30;99.90;;;;;;4954184;28;20056;-72
2023/09/25 12:21:08;;;;;;;31.15;29.08;;;20.40;99.90;;;;;;4945840;28;20043;-72
2023/09/25 12:23:35;;;;;;;30.08;28.17;;;20.40;99.90;;;;;;4953724;28;20117;-72
2023/09/25 12:26:02;;;;;;;29.48;27.60;;;20.40;99.90;;;;;;4950569;28;20137;-72
2023/09/25 12:28:30;;;;;;;29.95;27.95;;;20.40;99.90;;;;;;4939010;28;20050;-72
2023/09/25 12:30:57;;;;;;;30.10;28.20;;;20.50;99.90;;;;;;4927010;28;20153;-72
2023/09/25 12:33:24;;;;;;;30.88;28.67;;;20.50;99.90;;;;;;4947684;28;20054;-72
2023/09/25 12:35:52;;;;;;;30.85;28.85;;;20.30;99.90;;;;;;4954413;28;20061;-72